Time;durP1;ratioP1;P1;durP2;ratioP2;P2;SDS_P1;SDS_P2;PMS_P1;PMS_P2;Temp;Humidity;BMP_temperature;BMP_pressure;BME280_temperature;BME280_humidity;BME280_pressure;Samples;Min_cycle;Max_cycle;Signal;HPM_P1;HPM_P2
2022/10/11 09:59:59;;;;;;;14.90;3.45;;;11.60;99.90;;;;;;4318210;23;20057;-92
2022/10/11 10:02:26;;;;;;;10.30;2.83;;;11.70;99.90;;;;;;4876140;29;20127;-93
2022/10/11 10:05:10;;;;;;;11.90;2.85;;;11.90;99.90;;;;;;4867020;29;20052;-95
2022/10/11 10:12:28;;;;;;;12.90;3.17;;;12.10;99.90;;;;;;5111906;27;20393;-92
2022/10/11 10:15:06;;;;;;;14.52;2.95;;;12.10;99.90;;;;;;5099143;28;20575;-92
2022/10/11 10:17:33;;;;;;;14.52;3.30;;;12.20;99.90;;;;;;5101817;28;20097;-93
2022/10/11 10:19:59;;;;;;;13.40;2.97;;;12.20;99.90;;;;;;5076748;28;20051;-95
2022/10/11 10:22:32;;;;;;;14.05;3.67;;;12.20;99.90;;;;;;5086342;28;20043;-90
2022/10/11 10:25:00;;;;;;;12.68;3.40;;;12.30;99.90;;;;;;5092379;28;20108;-90
2022/10/11 10:27:28;;;;;;;13.95;3.25;;;12.30;99.90;;;;;;5073726;28;20039;-92
2022/10/11 10:30:06;;;;;;;11.65;2.90;;;12.40;99.90;;;;;;5075658;28;20047;-94
2022/10/11 10:32:44;;;;;;;14.07;3.55;;;12.40;99.90;;;;;;5061158;28;20044;-93
2022/10/11 10:35:24;;;;;;;14.00;3.92;;;12.40;99.90;;;;;;5066102;28;20043;-93
2022/10/11 10:37:57;;;;;;;12.88;3.28;;;12.50;99.90;;;;;;5074576;28;20046;-93
2022/10/11 10:40:31;;;;;;;14.68;3.58;;;12.50;99.90;;;;;;5076185;28;20040;-94
2022/10/11 10:42:57;;;;;;;15.73;3.47;;;12.60;99.90;;;;;;5112089;28;20086;-94
2022/10/11 10:45:33;;;;;;;16.90;3.38;;;12.70;99.90;;;;;;5083009;28;20036;-94
2022/10/11 10:48:33;;;;;;;13.15;3.10;;;12.70;99.90;;;;;;5071750;28;20127;-93
2022/10/11 10:51:25;;;;;;;16.45;3.60;;;12.70;99.90;;;;;;5067944;28;20044;-92
2022/10/11 10:54:19;;;;;;;13.48;3.72;;;12.80;99.90;;;;;;5106963;28;20039;-92
2022/10/11 10:56:58;;;;;;;13.93;3.08;;;12.80;99.90;;;;;;5064645;28;20059;-93
2022/10/11 10:59:51;;;;;;;13.13;3.00;;;12.80;99.90;;;;;;5101272;28;20488;-92
2022/10/11 11:02:53;;;;;;;11.60;2.80;;;12.90;99.90;;;;;;5074186;28;20039;-93
2022/10/11 11:05:39;;;;;;;12.13;2.58;;;13.10;99.90;;;;;;5074305;28;20040;-92
2022/10/11 11:08:11;;;;;;;11.48;2.85;;;13.10;99.90;;;;;;5092657;28;20079;-93
2022/10/11 11:11:00;;;;;;;15.50;3.15;;;13.10;99.90;;;;;;5090819;28;20484;-93
2022/10/11 11:14:00;;;;;;;12.98;2.78;;;13.10;99.90;;;;;;5089920;28;20051;-91
2022/10/11 11:17:06;;;;;;;10.35;2.83;;;13.20;99.90;;;;;;5110073;28;20049;-93
2022/10/11 11:19:40;;;;;;;10.35;2.83;;;13.30;99.90;;;;;;5084044;28;20107;-91
2022/10/11 11:22:24;;;;;;;13.90;2.72;;;13.30;99.90;;;;;;5107611;28;20555;-89
2022/10/11 11:25:04;;;;;;;14.80;3.25;;;13.50;99.90;;;;;;5081290;28;20036;-91
2022/10/11 11:27:45;;;;;;;12.50;2.55;;;13.60;99.90;;;;;;5076310;28;20400;-94
2022/10/11 11:30:17;;;;;;;14.18;2.97;;;13.70;99.90;;;;;;5103034;28;20419;-93
2022/10/11 11:33:18;;;;;;;15.57;3.55;;;13.80;99.90;;;;;;5077322;28;20062;-93
2022/10/11 11:35:48;;;;;;;11.95;2.90;;;13.90;99.90;;;;;;5060304;28;20059;-91
2022/10/11 11:38:22;;;;;;;12.15;2.47;;;14.00;99.90;;;;;;5076724;28;20040;-91
2022/10/11 11:40:54;;;;;;;12.88;2.40;;;14.10;99.90;;;;;;5059505;28;20097;-92
2022/10/11 11:43:22;;;;;;;11.77;2.70;;;14.10;99.90;;;;;;5076392;28;20064;-94
2022/10/11 11:45:57;;;;;;;11.00;2.42;;;14.10;99.90;;;;;;5094200;28;20040;-92
2022/10/11 11:48:24;;;;;;;11.80;2.50;;;14.10;99.90;;;;;;5077626;28;20036;-94
2022/10/11 11:51:08;;;;;;;13.32;2.85;;;14.00;99.90;;;;;;5054298;28;20386;-92
2022/10/11 11:53:52;;;;;;;11.15;2.85;;;14.00;99.90;;;;;;5056505;28;20119;-91
2022/10/11 11:56:51;;;;;;;11.48;2.28;;;14.00;99.90;;;;;;5061984;28;20036;-91
2022/10/11 11:59:31;;;;;;;15.05;3.20;;;14.00;99.90;;;;;;5080622;28;20035;-92
2022/10/11 12:02:21;;;;;;;13.10;3.17;;;14.00;99.90;;;;;;5056148;28;20059;-91
2022/10/11 12:04:48;;;;;;;13.57;3.00;;;14.00;99.90;;;;;;5059105;28;20040;-91
2022/10/11 12:07:22;;;;;;;11.93;3.08;;;14.00;99.90;;;;;;5059841;28;20336;-91
2022/10/11 12:09:53;;;;;;;10.05;2.38;;;14.00;99.90;;;;;;5056067;28;20066;-92
2022/10/11 12:12:35;;;;;;;11.65;2.53;;;14.10;99.90;;;;;;5070733;28;20062;-93
2022/10/11 12:15:16;;;;;;;11.57;2.55;;;14.00;99.90;;;;;;5110495;28;20062;-92
2022/10/11 12:17:56;;;;;;;10.98;2.63;;;14.00;99.90;;;;;;5098168;28;20083;-92
2022/10/11 12:20:36;;;;;;;10.90;2.80;;;14.10;99.90;;;;;;5078438;28;20044;-93
2022/10/11 12:23:28;;;;;;;12.65;2.78;;;14.20;99.90;;;;;;5053964;28;20384;-93
2022/10/11 12:26:42;;;;;;;11.85;2.53;;;14.10;99.90;;;;;;5051307;28;20048;-95
2022/10/11 12:29:47;;;;;;;12.75;2.75;;;14.20;99.90;;;;;;5062861;28;20055;-92
2022/10/11 12:32:34;;;;;;;11.00;2.90;;;14.30;99.90;;;;;;5097482;28;20046;-94
2022/10/11 12:35:35;;;;;;;10.38;2.28;;;14.30;99.90;;;;;;5100989;28;20036;-91
2022/10/11 12:38:15;;;;;;;8.68;2.17;;;14.20;99.90;;;;;;5076231;28;20089;-93
2022/10/11 12:40:44;;;;;;;13.30;2.70;;;14.20;99.90;;;;;;5072742;28;20044;-93
2022/10/11 12:43:21;;;;;;;9.82;2.33;;;14.20;99.90;;;;;;5092930;28;20051;-93
2022/10/11 12:45:47;;;;;;;12.63;2.92;;;14.30;99.90;;;;;;5059064;28;20032;-93
2022/10/11 12:48:24;;;;;;;12.15;3.33;;;14.50;99.90;;;;;;5093108;28;20070;-93
2022/10/11 12:51:05;;;;;;;12.73;2.92;;;14.60;99.90;;;;;;5070845;28;20051;-92
2022/10/11 12:53:55;;;;;;;11.65;2.60;;;14.70;99.90;;;;;;5037913;28;20504;-92
2022/10/11 12:56:39;;;;;;;11.48;2.45;;;14.70;99.90;;;;;;5066652;28;20121;-93
2022/10/11 12:59:05;;;;;;;10.93;2.42;;;14.80;99.90;;;;;;5073424;28;20032;-93
2022/10/11 13:01:46;;;;;;;11.90;3.08;;;14.90;99.90;;;;;;5093472;28;20040;-93
2022/10/11 13:04:11;;;;;;;14.18;2.67;;;15.00;99.90;;;;;;5073553;28;20047;-95
2022/10/11 13:06:52;;;;;;;10.60;2.60;;;15.00;99.90;;;;;;5040100;28;20036;-93
2022/10/11 13:09:38;;;;;;;13.55;4.25;;;15.00;99.90;;;;;;5080631;28;20051;-96
2022/10/11 13:12:18;;;;;;;11.23;2.20;;;14.90;99.90;;;;;;5097757;28;20131;-95
2022/10/11 13:15:02;;;;;;;10.57;3.13;;;14.80;99.90;;;;;;5094489;28;20016;-95
2022/10/11 13:17:34;;;;;;;12.10;2.47;;;14.70;99.90;;;;;;5076302;28;20048;-93
2022/10/11 13:20:11;;;;;;;11.15;2.60;;;14.60;99.90;;;;;;5103366;28;20088;-93
2022/10/11 13:22:38;;;;;;;13.50;2.70;;;14.50;99.90;;;;;;5092178;28;20388;-92
2022/10/11 13:25:05;;;;;;;10.25;2.40;;;14.40;99.90;;;;;;5089192;28;20055;-92
2022/10/11 13:27:31;;;;;;;11.65;2.78;;;14.30;99.90;;;;;;5057838;28;20059;-92
2022/10/11 13:30:02;;;;;;;10.13;2.75;;;14.30;99.90;;;;;;5093949;28;20036;-89
2022/10/11 13:32:30;;;;;;;11.18;2.63;;;14.20;99.90;;;;;;5098650;28;20042;-89
2022/10/11 13:35:01;;;;;;;13.02;2.85;;;14.10;99.90;;;;;;5092402;28;20031;-89
2022/10/11 13:37:28;;;;;;;13.00;2.47;;;14.10;99.90;;;;;;5075907;28;20043;-89
2022/10/11 13:39:55;;;;;;;9.95;2.35;;;14.10;99.90;;;;;;5086238;28;20044;-89
2022/10/11 13:42:29;;;;;;;12.82;2.53;;;14.10;99.90;;;;;;5070702;28;20109;-91
2022/10/11 13:44:56;;;;;;;13.68;2.78;;;14.00;99.90;;;;;;5062606;28;20047;-91
2022/10/11 13:47:26;;;;;;;11.40;2.75;;;14.00;99.90;;;;;;5054837;28;20089;-93
2022/10/11 13:50:13;;;;;;;11.20;2.75;;;14.00;99.90;;;;;;5053462;28;20051;-92
2022/10/11 13:53:01;;;;;;;9.45;2.60;;;13.90;99.90;;;;;;5072133;28;20044;-92
2022/10/11 13:55:55;;;;;;;12.43;2.75;;;13.90;99.90;;;;;;5054625;28;20389;-92
2022/10/11 13:58:24;;;;;;;11.95;2.65;;;13.80;99.90;;;;;;5052086;28;20029;-92
2022/10/11 14:00:59;;;;;;;11.18;2.58;;;13.80;99.90;;;;;;5075496;28;20070;-92
2022/10/11 14:03:46;;;;;;;12.10;2.70;;;13.80;99.90;;;;;;5095168;28;20044;-92
2022/10/11 14:06:12;;;;;;;11.07;2.20;;;13.70;99.90;;;;;;5095225;28;20036;-93
2022/10/11 14:08:44;;;;;;;12.65;2.42;;;13.60;99.90;;;;;;5074801;28;20381;-92
2022/10/11 14:11:12;;;;;;;13.73;2.67;;;13.60;99.90;;;;;;5059520;28;20052;-92
2022/10/11 14:13:46;;;;;;;12.07;2.45;;;13.60;99.90;;;;;;5054182;28;20071;-93
2022/10/11 14:16:17;;;;;;;11.23;2.50;;;13.50;99.90;;;;;;5068621;28;20036;-93
2022/10/11 14:18:58;;;;;;;11.60;2.55;;;13.50;99.90;;;;;;5082421;28;20482;-92
2022/10/11 14:21:33;;;;;;;10.57;2.63;;;13.40;99.90;;;;;;5080292;28;20036;-93
2022/10/11 14:24:05;;;;;;;11.85;2.60;;;13.40;99.90;;;;;;5098146;28;20048;-91
2022/10/11 14:26:37;;;;;;;9.52;2.63;;;13.40;99.90;;;;;;5099988;28;20099;-91
2022/10/11 14:29:12;;;;;;;8.77;2.40;;;13.40;99.90;;;;;;5102326;28;20565;-91
2022/10/11 14:31:39;;;;;;;12.60;2.50;;;13.40;99.90;;;;;;5086881;28;20090;-91
2022/10/11 14:34:05;;;;;;;10.98;2.10;;;13.40;99.90;;;;;;5091662;28;20020;-91
2022/10/11 14:36:30;;;;;;;12.00;2.65;;;13.50;99.90;;;;;;5105597;28;20041;-91
2022/10/11 14:38:56;;;;;;;10.75;2.20;;;13.50;99.90;;;;;;5054171;28;20041;-91
2022/10/11 14:41:22;;;;;;;10.38;2.35;;;13.60;99.90;;;;;;5068481;28;20238;-92
2022/10/11 14:43:48;;;;;;;10.25;2.10;;;13.70;99.90;;;;;;5073728;28;20040;-92
2022/10/11 14:46:23;;;;;;;9.27;2.45;;;13.80;99.90;;;;;;5072476;28;20043;-92
2022/10/11 14:48:49;;;;;;;10.07;1.95;;;13.90;99.90;;;;;;5091720;28;20044;-93
2022/10/11 14:51:20;;;;;;;10.98;2.10;;;14.00;99.90;;;;;;5053928;28;20055;-92
2022/10/11 14:53:46;;;;;;;9.20;1.95;;;14.10;99.90;;;;;;5074082;28;20055;-91
2022/10/11 14:56:12;;;;;;;10.77;1.70;;;14.20;99.90;;;;;;5061732;28;20040;-93
2022/10/11 14:58:39;;;;;;;8.63;2.13;;;14.20;99.90;;;;;;5078981;28;20493;-95
2022/10/11 15:01:05;;;;;;;10.68;2.33;;;14.30;99.90;;;;;;5072566;28;20045;-93
2022/10/11 15:03:31;;;;;;;12.95;4.75;;;14.30;99.90;;;;;;5091080;28;20042;-90
2022/10/11 15:05:56;;;;;;;11.20;2.78;;;14.40;99.90;;;;;;5089855;28;20405;-91
2022/10/11 15:08:22;;;;;;;10.95;2.40;;;14.50;99.90;;;;;;5089854;28;20048;-93
2022/10/11 15:10:47;;;;;;;9.85;2.55;;;14.50;99.90;;;;;;5074975;28;20056;-93
2022/10/11 15:13:13;;;;;;;7.50;2.00;;;14.50;99.90;;;;;;5058821;28;20036;-94
2022/10/11 15:15:40;;;;;;;9.07;2.22;;;14.50;99.90;;;;;;5065740;28;20064;-95
2022/10/11 15:18:09;;;;;;;11.45;3.13;;;14.40;99.90;;;;;;5087188;28;20027;-93
2022/10/11 15:20:41;;;;;;;13.93;4.15;;;14.50;99.90;;;;;;5115844;28;20074;-93
2022/10/11 15:23:08;;;;;;;12.02;3.10;;;14.50;99.90;;;;;;5063459;28;20036;-96
2022/10/11 15:25:34;;;;;;;9.55;2.40;;;14.50;99.90;;;;;;5080708;28;20040;-94
2022/10/11 15:28:00;;;;;;;11.25;3.22;;;14.40;99.90;;;;;;5068226;28;20058;-93
2022/10/11 15:30:29;;;;;;;10.48;3.80;;;14.50;99.90;;;;;;5053466;28;20036;-93
2022/10/11 15:32:55;;;;;;;10.32;2.72;;;14.50;99.90;;;;;;5055866;28;20039;-93
2022/10/11 15:35:25;;;;;;;12.88;2.63;;;14.40;99.90;;;;;;5062699;28;20039;-92
2022/10/11 15:37:53;;;;;;;9.30;2.60;;;14.40;99.90;;;;;;5063417;28;20044;-93
2022/10/11 15:40:37;;;;;;;11.13;2.28;;;14.40;99.90;;;;;;5085825;28;20020;-93
2022/10/11 15:43:03;;;;;;;10.65;2.80;;;14.40;99.90;;;;;;5078228;28;20066;-91
2022/10/11 15:45:29;;;;;;;10.88;2.78;;;14.40;99.90;;;;;;5075291;28;20055;-93
2022/10/11 15:47:55;;;;;;;9.95;3.55;;;14.40;99.90;;;;;;5071193;28;20028;-94
2022/10/11 15:50:33;;;;;;;10.23;2.90;;;14.40;99.90;;;;;;5054393;28;20060;-93
2022/10/11 15:52:59;;;;;;;8.40;2.47;;;14.40;99.90;;;;;;5068674;28;20469;-92
2022/10/11 15:55:24;;;;;;;12.18;3.90;;;14.30;99.90;;;;;;5043690;28;20046;-92
2022/10/11 15:57:50;;;;;;;11.43;3.70;;;14.30;99.90;;;;;;5065860;28;20116;-92
2022/10/11 16:00:16;;;;;;;13.63;4.43;;;14.30;99.90;;;;;;5080136;28;20119;-94
2022/10/11 16:02:42;;;;;;;10.68;3.83;;;14.10;99.90;;;;;;5065471;28;20037;-94
2022/10/11 16:05:07;;;;;;;12.15;3.35;;;14.10;99.90;;;;;;5094116;28;20036;-96
2022/10/11 16:07:33;;;;;;;11.50;3.22;;;14.00;99.90;;;;;;5079335;28;20450;-94
2022/10/11 16:09:59;;;;;;;9.32;2.90;;;13.90;99.90;;;;;;5075651;28;20032;-96
2022/10/11 16:12:24;;;;;;;12.60;2.88;;;13.80;99.90;;;;;;5065008;28;20054;-96
2022/10/11 16:14:50;;;;;;;9.98;2.70;;;13.60;99.90;;;;;;5059106;28;20399;-96
2022/10/11 16:17:16;;;;;;;10.40;2.85;;;13.60;99.90;;;;;;5053592;28;20042;-96
2022/10/11 16:19:41;;;;;;;8.63;2.35;;;13.60;99.90;;;;;;5054033;28;20093;-96
2022/10/11 16:22:07;;;;;;;10.70;2.75;;;13.50;99.90;;;;;;5082966;28;20440;-96
2022/10/11 16:24:32;;;;;;;11.27;2.78;;;13.40;99.90;;;;;;5067005;28;20032;-96
2022/10/11 16:26:58;;;;;;;10.65;2.67;;;13.30;99.90;;;;;;5071408;28;20037;-96
2022/10/11 16:29:24;;;;;;;10.25;2.53;;;13.20;99.90;;;;;;5084149;28;20369;-96
2022/10/11 16:31:50;;;;;;;10.30;2.80;;;13.10;99.90;;;;;;5060909;28;20027;-95
2022/10/11 16:34:15;;;;;;;11.57;3.38;;;13.10;99.90;;;;;;5058976;28;20040;-96
2022/10/11 16:36:43;;;;;;;9.70;2.72;;;12.90;99.90;;;;;;5052759;28;20036;-96
2022/10/11 16:39:14;;;;;;;10.65;2.92;;;12.90;99.90;;;;;;5070235;28;20043;-96
2022/10/11 16:41:41;;;;;;;11.18;2.13;;;12.70;99.90;;;;;;5069712;28;20044;-95
2022/10/11 16:44:11;;;;;;;10.20;2.30;;;12.70;99.90;;;;;;5060977;28;20123;-94
2022/10/11 16:46:36;;;;;;;9.88;2.30;;;12.70;99.90;;;;;;5073618;28;20032;-95
2022/10/11 16:49:03;;;;;;;9.52;2.47;;;12.60;99.90;;;;;;5077979;28;20070;-94
2022/10/11 16:51:29;;;;;;;9.85;2.50;;;12.50;99.90;;;;;;5056784;28;20040;-96
2022/10/11 16:53:54;;;;;;;10.55;2.53;;;12.40;99.90;;;;;;5067510;28;20119;-96
2022/10/11 16:56:22;;;;;;;11.00;3.55;;;12.30;99.90;;;;;;5078193;28;20074;-96
2022/10/11 16:58:48;;;;;;;13.18;3.00;;;12.20;99.90;;;;;;5092782;28;20035;-96
2022/10/11 17:01:14;;;;;;;12.45;4.88;;;12.10;99.90;;;;;;5088137;28;20038;-95
2022/10/11 17:03:39;;;;;;;15.93;8.82;;;12.10;99.90;;;;;;5061335;28;20039;-94
2022/10/11 17:06:06;;;;;;;17.77;8.25;;;11.90;99.90;;;;;;5076496;28;20058;-96
2022/10/11 17:08:32;;;;;;;15.77;7.22;;;11.80;99.90;;;;;;5056867;28;20556;-96
2022/10/11 17:10:57;;;;;;;18.20;9.88;;;11.70;99.90;;;;;;5059707;28;20066;-96
2022/10/11 17:13:23;;;;;;;17.73;9.07;;;11.70;99.90;;;;;;5071752;28;20024;-96
2022/10/11 17:15:49;;;;;;;17.15;9.05;;;11.60;99.90;;;;;;5080386;28;20024;-96
2022/10/11 17:18:15;;;;;;;17.17;8.65;;;11.60;99.90;;;;;;5080704;28;20035;-95
2022/10/11 17:20:41;;;;;;;19.75;10.43;;;11.50;99.90;;;;;;5072309;28;20040;-96
2022/10/11 17:23:07;;;;;;;20.98;11.85;;;11.40;99.90;;;;;;5057611;28;20477;-96
2022/10/11 17:25:32;;;;;;;28.33;18.00;;;11.30;99.90;;;;;;5059470;28;20100;-95
2022/10/11 17:27:58;;;;;;;28.85;19.48;;;11.30;99.90;;;;;;5061089;28;20120;-93
2022/10/11 17:30:24;;;;;;;28.35;19.60;;;11.20;99.90;;;;;;5045873;28;20121;-95
2022/10/11 17:32:51;;;;;;;20.42;9.77;;;11.20;99.90;;;;;;5070824;28;20032;-95
2022/10/11 17:35:17;;;;;;;16.75;9.60;;;11.10;99.90;;;;;;5049636;28;20036;-95
2022/10/11 17:37:42;;;;;;;17.45;11.80;;;11.00;99.90;;;;;;5062518;28;20473;-94
2022/10/11 17:40:08;;;;;;;16.23;8.77;;;11.00;99.90;;;;;;5059135;28;20052;-95
2022/10/11 17:42:34;;;;;;;16.83;9.13;;;10.90;99.90;;;;;;5046659;28;20120;-95
2022/10/11 17:45:00;;;;;;;17.65;7.38;;;10.90;99.90;;;;;;5073966;28;20068;-96
2022/10/11 17:47:26;;;;;;;14.68;6.95;;;10.80;99.90;;;;;;5090966;28;20068;-95
2022/10/11 17:49:52;;;;;;;14.65;7.60;;;10.70;99.90;;;;;;5040275;28;20049;-95
2022/10/11 17:52:18;;;;;;;12.10;5.53;;;10.60;99.90;;;;;;5080153;28;20044;-94
2022/10/11 17:54:43;;;;;;;12.02;4.50;;;10.60;99.90;;;;;;5086327;28;20070;-94
2022/10/11 17:57:09;;;;;;;12.40;5.35;;;10.50;99.90;;;;;;5077954;28;20036;-94
2022/10/11 17:59:35;;;;;;;13.25;5.45;;;10.40;99.90;;;;;;5059856;28;20033;-94
2022/10/11 18:02:01;;;;;;;11.88;5.43;;;10.40;99.90;;;;;;5082702;28;20127;-95
2022/10/11 18:04:28;;;;;;;14.07;6.82;;;10.30;99.90;;;;;;5061983;28;20035;-94
2022/10/11 18:06:54;;;;;;;14.25;6.43;;;10.20;99.90;;;;;;5060092;28;20044;-95
2022/10/11 18:09:22;;;;;;;12.80;6.00;;;10.20;99.90;;;;;;5077321;28;20035;-94
2022/10/11 18:11:48;;;;;;;13.93;5.80;;;10.10;99.90;;;;;;5047255;28;20128;-95
2022/10/11 18:14:14;;;;;;;14.50;5.28;;;10.00;99.90;;;;;;5044746;28;20563;-95
2022/10/11 18:16:40;;;;;;;12.75;5.35;;;10.00;99.90;;;;;;5079269;28;20032;-95
2022/10/11 18:19:09;;;;;;;13.05;4.55;;;9.90;99.90;;;;;;5080243;28;20043;-95
2022/10/11 18:21:36;;;;;;;14.25;5.53;;;9.90;99.90;;;;;;5079935;28;20099;-96
2022/10/11 18:24:09;;;;;;;11.95;4.85;;;9.90;99.90;;;;;;5061207;28;20055;-96
2022/10/11 18:26:36;;;;;;;11.23;5.10;;;9.80;99.90;;;;;;5069188;28;20105;-94
2022/10/11 18:29:03;;;;;;;10.00;4.53;;;9.80;99.90;;;;;;5075716;28;20036;-96
2022/10/11 18:31:32;;;;;;;10.85;4.63;;;9.70;99.90;;;;;;5061749;28;20063;-96
2022/10/11 18:33:58;;;;;;;11.38;4.10;;;9.70;99.90;;;;;;5079804;28;20044;-96
2022/10/11 18:36:27;;;;;;;12.73;3.80;;;9.70;99.90;;;;;;5063939;28;20028;-96
2022/10/11 18:38:55;;;;;;;8.88;3.13;;;9.60;99.90;;;;;;5076429;28;20089;-96
2022/10/11 18:41:23;;;;;;;11.25;3.80;;;9.60;99.90;;;;;;5074548;28;20042;-96
2022/10/11 18:43:54;;;;;;;11.10;3.50;;;9.50;99.90;;;;;;5083900;28;20079;-96
2022/10/11 18:46:20;;;;;;;13.65;4.28;;;9.40;99.90;;;;;;5070440;28;20036;-95
2022/10/11 18:48:49;;;;;;;10.15;3.92;;;9.40;99.90;;;;;;5074430;28;20020;-96
2022/10/11 18:51:18;;;;;;;12.23;4.05;;;9.40;99.90;;;;;;5074762;28;20028;-95
2022/10/11 18:53:44;;;;;;;12.45;4.03;;;9.40;99.90;;;;;;5074263;28;20040;-96
2022/10/11 18:56:11;;;;;;;9.57;3.20;;;9.30;99.90;;;;;;5097576;28;20033;-96
2022/10/11 18:58:38;;;;;;;11.68;4.68;;;9.20;99.90;;;;;;5056320;28;20099;-96
2022/10/11 19:01:11;;;;;;;11.70;4.45;;;9.20;99.90;;;;;;5080202;28;20040;-96
2022/10/11 19:03:37;;;;;;;13.63;7.03;;;9.20;99.90;;;;;;5061708;28;20043;-96
2022/10/11 19:06:05;;;;;;;13.13;5.88;;;9.20;99.90;;;;;;5105560;28;20032;-96
2022/10/11 19:08:31;;;;;;;11.88;5.63;;;9.00;99.90;;;;;;5066550;28;20043;-96
2022/10/11 19:11:05;;;;;;;12.27;5.30;;;9.10;99.90;;;;;;5069973;28;20076;-96
2022/10/11 19:13:30;;;;;;;9.30;3.80;;;9.00;99.90;;;;;;5044917;28;20033;-96
2022/10/11 19:16:06;;;;;;;9.35;3.53;;;8.90;99.90;;;;;;5060856;28;20044;-96
2022/10/11 19:18:32;;;;;;;10.43;4.95;;;8.90;99.90;;;;;;5046524;28;20776;-96
2022/10/11 19:21:02;;;;;;;13.02;5.63;;;8.90;99.90;;;;;;5057418;28;20083;-96
2022/10/11 19:23:33;;;;;;;12.23;5.10;;;8.90;99.90;;;;;;5060809;28;20066;-96
2022/10/11 19:25:59;;;;;;;11.55;4.90;;;8.80;99.90;;;;;;5055590;28;20485;-96
2022/10/11 19:28:24;;;;;;;10.32;4.50;;;8.80;99.90;;;;;;5065885;28;20094;-96
2022/10/11 19:30:50;;;;;;;11.15;4.90;;;8.80;99.90;;;;;;5062241;28;20048;-94
2022/10/11 19:33:16;;;;;;;13.27;4.63;;;8.70;99.90;;;;;;5078471;28;20066;-94
2022/10/11 19:35:52;;;;;;;13.25;4.82;;;8.70;99.90;;;;;;5079444;28;20353;-96
2022/10/11 19:38:18;;;;;;;11.63;4.78;;;8.70;99.90;;;;;;5047120;28;20044;-96
2022/10/11 19:40:44;;;;;;;13.23;5.18;;;8.70;99.90;;;;;;5078097;28;20047;-95
2022/10/11 19:43:09;;;;;;;12.73;5.22;;;8.60;99.90;;;;;;5059185;28;20044;-95
2022/10/11 19:45:35;;;;;;;10.35;4.50;;;8.60;99.90;;;;;;5046021;28;20400;-96
2022/10/11 19:48:01;;;;;;;11.32;4.65;;;8.50;99.90;;;;;;5044067;28;20072;-95
2022/10/11 19:50:26;;;;;;;11.95;6.35;;;8.40;99.90;;;;;;5092064;28;20123;-95
2022/10/11 19:52:52;;;;;;;11.55;4.55;;;8.40;99.90;;;;;;5073460;28;20082;-96
2022/10/11 19:55:17;;;;;;;11.85;6.00;;;8.40;99.90;;;;;;5075170;28;20063;-96
2022/10/11 19:57:46;;;;;;;12.90;4.80;;;8.40;99.90;;;;;;5044804;28;20036;-94
2022/10/11 20:00:13;;;;;;;13.98;7.50;;;8.30;99.90;;;;;;5052893;28;20387;-91
2022/10/11 20:02:38;;;;;;;12.50;6.70;;;8.30;99.90;;;;;;5054671;28;20044;-94
2022/10/11 20:05:04;;;;;;;12.88;5.32;;;8.40;99.90;;;;;;5064520;28;20537;-92
2022/10/11 20:07:30;;;;;;;9.65;5.30;;;8.30;99.90;;;;;;5065235;28;20024;-90
2022/10/11 20:09:56;;;;;;;14.07;6.13;;;8.20;99.90;;;;;;5052471;28;20040;-90
2022/10/11 20:12:21;;;;;;;14.43;9.68;;;8.10;99.90;;;;;;5079059;28;20051;-90
2022/10/11 20:14:47;;;;;;;15.35;7.75;;;8.10;99.90;;;;;;5094635;28;20036;-91
2022/10/11 20:17:13;;;;;;;17.67;10.60;;;8.10;99.90;;;;;;5086454;28;20047;-90
2022/10/11 20:19:39;;;;;;;20.15;10.48;;;8.10;99.90;;;;;;5083475;28;20020;-90
2022/10/11 20:22:04;;;;;;;25.83;20.30;;;8.00;99.90;;;;;;5074927;28;20043;-91
2022/10/11 20:24:31;;;;;;;28.92;23.17;;;8.10;99.90;;;;;;5094856;28;20046;-90
2022/10/11 20:26:57;;;;;;;19.45;10.77;;;8.10;99.90;;;;;;5075562;28;20076;-91
2022/10/11 20:29:24;;;;;;;17.33;11.13;;;8.00;99.90;;;;;;5074187;28;20444;-89
2022/10/11 20:31:50;;;;;;;17.92;12.77;;;8.00;99.90;;;;;;5067069;28;20113;-91
2022/10/11 20:34:16;;;;;;;15.90;9.07;;;8.00;99.90;;;;;;5076038;28;20036;-90
2022/10/11 20:36:41;;;;;;;14.00;9.35;;;7.90;99.90;;;;;;5077250;28;21739;-92
2022/10/11 20:39:08;;;;;;;13.90;6.68;;;8.00;99.90;;;;;;5074380;28;20446;-91
2022/10/11 20:41:39;;;;;;;16.02;10.65;;;7.90;99.90;;;;;;5104759;28;20396;-91
2022/10/11 20:44:10;;;;;;;15.90;7.82;;;7.90;99.90;;;;;;5089509;28;20040;-91
2022/10/11 20:46:41;;;;;;;17.67;11.00;;;7.80;99.90;;;;;;5086479;28;20397;-92
2022/10/11 20:49:09;;;;;;;16.95;7.55;;;7.90;99.90;;;;;;5061167;28;20027;-92
2022/10/11 20:51:37;;;;;;;14.80;8.57;;;7.80;99.90;;;;;;5054303;28;20423;-92
2022/10/11 20:54:03;;;;;;;15.95;9.02;;;7.70;99.90;;;;;;5088184;28;20409;-92
2022/10/11 20:56:29;;;;;;;14.50;8.68;;;7.70;99.90;;;;;;5077436;28;20067;-92
2022/10/11 20:58:57;;;;;;;14.35;9.95;;;7.60;99.90;;;;;;5075134;28;20036;-95
2022/10/11 21:01:34;;;;;;;13.13;7.25;;;7.70;99.90;;;;;;5071537;28;20036;-92
2022/10/11 21:04:01;;;;;;;13.63;7.20;;;7.50;99.90;;;;;;5078573;28;20047;-92
2022/10/11 21:06:28;;;;;;;14.10;7.22;;;7.70;99.90;;;;;;5058303;28;20047;-92
2022/10/11 21:08:55;;;;;;;12.00;5.47;;;7.70;99.90;;;;;;5057718;28;20054;-93
2022/10/11 21:11:23;;;;;;;11.18;5.55;;;7.60;99.90;;;;;;5073537;28;20443;-91
2022/10/11 21:13:54;;;;;;;13.55;5.40;;;7.50;99.90;;;;;;5075218;28;20051;-92
2022/10/11 21:16:19;;;;;;;16.50;5.57;;;7.40;99.90;;;;;;5059688;28;20385;-94
2022/10/11 21:18:53;;;;;;;15.20;9.40;;;7.50;99.90;;;;;;5086443;28;20044;-93
2022/10/11 21:21:19;;;;;;;12.30;6.43;;;7.50;99.90;;;;;;5090078;28;20048;-93
2022/10/11 21:23:46;;;;;;;15.00;8.40;;;7.50;99.90;;;;;;5107548;28;20042;-92
2022/10/11 21:26:14;;;;;;;15.35;6.68;;;7.50;99.90;;;;;;5089396;28;20075;-92
2022/10/11 21:28:40;;;;;;;10.27;4.25;;;7.60;99.90;;;;;;5103460;28;20438;-91
2022/10/11 21:31:11;;;;;;;12.23;6.35;;;7.40;99.90;;;;;;5052557;28;20028;-90
2022/10/11 21:33:38;;;;;;;10.52;4.50;;;7.50;99.90;;;;;;5106046;28;20032;-92
2022/10/11 21:36:12;;;;;;;12.82;4.63;;;7.40;99.90;;;;;;5076239;28;20057;-92
2022/10/11 21:38:38;;;;;;;11.05;5.32;;;7.40;99.90;;;;;;5099624;28;20034;-93
2022/10/11 21:41:06;;;;;;;9.73;3.83;;;7.30;99.90;;;;;;5072351;28;20032;-92
2022/10/11 21:43:34;;;;;;;8.25;3.88;;;7.30;99.90;;;;;;5046568;28;20135;-93
2022/10/11 21:46:26;;;;;;;12.30;5.38;;;7.20;99.90;;;;;;5098000;28;20395;-91
2022/10/11 21:48:52;;;;;;;11.73;4.85;;;7.30;99.90;;;;;;5062885;28;20051;-92
2022/10/11 21:51:23;;;;;;;9.52;3.35;;;7.20;99.90;;;;;;5057993;28;20067;-92
2022/10/11 21:53:49;;;;;;;7.25;2.75;;;7.10;99.90;;;;;;5091767;28;20049;-93
2022/10/11 21:56:15;;;;;;;8.15;3.35;;;7.00;99.90;;;;;;5086332;28;20041;-92
2022/10/11 21:58:41;;;;;;;9.95;3.75;;;7.00;99.90;;;;;;5100051;28;20079;-92
2022/10/11 22:01:07;;;;;;;7.53;2.90;;;7.00;99.90;;;;;;5075119;28;20109;-93
2022/10/11 22:03:33;;;;;;;10.20;3.55;;;7.00;99.90;;;;;;5114358;28;20219;-92
2022/10/11 22:06:03;;;;;;;11.32;4.93;;;7.00;99.90;;;;;;5081298;28;20036;-91
2022/10/11 22:08:29;;;;;;;6.00;3.08;;;7.00;99.90;;;;;;5088839;28;20040;-92
2022/10/11 22:10:57;;;;;;;7.55;2.63;;;6.90;99.90;;;;;;5092605;28;20047;-90
2022/10/11 22:13:24;;;;;;;8.30;4.30;;;6.80;99.90;;;;;;5080481;28;20048;-89
2022/10/11 22:15:50;;;;;;;7.63;3.13;;;6.90;99.90;;;;;;5082935;28;20037;-90
2022/10/11 22:18:16;;;;;;;8.07;3.25;;;6.80;99.90;;;;;;5126396;28;20092;-90
2022/10/11 22:20:42;;;;;;;10.48;4.00;;;6.80;99.90;;;;;;5128391;28;20016;-90
2022/10/11 22:23:08;;;;;;;10.68;5.20;;;6.80;99.90;;;;;;5084634;28;20040;-90
2022/10/11 22:25:34;;;;;;;10.18;4.05;;;6.80;99.90;;;;;;5092815;28;20032;-91
2022/10/11 22:28:00;;;;;;;9.68;3.70;;;6.70;99.90;;;;;;5074573;28;20037;-91
2022/10/11 22:30:26;;;;;;;10.52;4.25;;;6.70;99.90;;;;;;5080282;28;20507;-90
2022/10/11 22:32:51;;;;;;;11.88;5.88;;;6.70;99.90;;;;;;5097829;28;20411;-91
2022/10/11 22:35:17;;;;;;;9.70;3.75;;;6.70;99.90;;;;;;5102367;28;20043;-90
2022/10/11 22:37:43;;;;;;;12.57;4.00;;;6.70;99.90;;;;;;5076262;28;20028;-93
2022/10/11 22:40:09;;;;;;;10.18;3.40;;;6.60;99.90;;;;;;5044959;28;20093;-91
2022/10/11 22:42:35;;;;;;;10.50;3.20;;;6.60;99.90;;;;;;5080956;28;20031;-90
2022/10/11 22:45:01;;;;;;;8.85;3.67;;;6.50;99.90;;;;;;5077149;28;20404;-90
2022/10/11 22:47:26;;;;;;;9.23;3.75;;;6.50;99.90;;;;;;5090661;28;20042;-91
2022/10/11 22:49:52;;;;;;;9.77;3.60;;;6.50;99.90;;;;;;5076928;28;20040;-90
2022/10/11 22:52:18;;;;;;;6.25;3.20;;;6.50;99.90;;;;;;5093872;28;20040;-90
2022/10/11 22:54:43;;;;;;;8.65;3.40;;;6.40;99.90;;;;;;5082605;28;20043;-90
2022/10/11 22:57:09;;;;;;;6.97;3.20;;;6.40;99.90;;;;;;5058637;28;20118;-90
2022/10/11 22:59:35;;;;;;;7.30;2.75;;;6.30;99.90;;;;;;5084868;28;20032;-91
2022/10/11 23:02:01;;;;;;;6.47;2.85;;;6.40;99.90;;;;;;5053332;28;20047;-91